Weather at Sierra Blanca Regional Airport

Public forecast

Using degrees Fahrenheit for public forecast. Weather courtesy of forecast.io.

Current aviation weather report (METAR) for Sierra Blanca Regional Airport

Report is more than 6 hours old.

Retrieved 2022/09/17 18:55 UTC (19 days ago):

KSRR 171855Z AUTO 21015G26KT 10SM 25/08 A3023 RMK AO2 TSNO

Closest aviation forecast (TAF) to Sierra Blanca Regional Airport

Forecast is more than 12 hours old.

Closest forecast is Holloman Air Force Base, 46.6 nm (86.3 km) SW. Retrieved 2022/09/16 17:33 UTC (20 days ago):

TAF KHMN 161700Z 1617/1723 VRB06KT 9999 SKC QNH2994INS TX32/1623Z TN19/1706Z